createdAt,value
2022-08-17T00:00:01.791Z,23.63
2022-08-17T00:02:56.376Z,25.38
2022-08-17T00:05:23.466Z,24.86
2022-08-17T00:07:50.456Z,25.34
2022-08-17T00:10:17.407Z,25.61
2022-08-17T00:12:44.851Z,24.01
2022-08-17T00:15:13.546Z,23.84
2022-08-17T00:17:42.512Z,23.95
2022-08-17T00:20:12.108Z,25.13
2022-08-17T00:22:39.133Z,24.09
2022-08-17T00:25:12.059Z,24.25
2022-08-17T00:27:39.550Z,23.13
2022-08-17T00:30:08.685Z,23.95
2022-08-17T00:33:14.210Z,24.59
2022-08-17T00:35:33.031Z,24.65
2022-08-17T00:38:00.039Z,25.11
2022-08-17T00:40:27.288Z,25.67
2022-08-17T00:43:28.035Z,25.14
2022-08-17T00:45:55.108Z,25.05
2022-08-17T00:48:29.371Z,24.21
2022-08-17T00:51:03.092Z,24.53
2022-08-17T00:53:33.457Z,25.49
2022-08-17T00:56:03.225Z,22.92
2022-08-17T00:58:36.564Z,23.78
2022-08-17T01:01:05.274Z,24.04
2022-08-17T01:03:33.104Z,25.36
2022-08-17T01:06:02.634Z,24.89
2022-08-17T01:08:31.385Z,23.47
2022-08-17T01:11:02.295Z,23.73
2022-08-17T01:13:41.115Z,24.06
2022-08-17T01:16:11.713Z,23.47
2022-08-17T01:18:39.288Z,21.94
2022-08-17T01:21:22.766Z,20.84
2022-08-17T01:23:49.543Z,20.80
2022-08-17T01:26:16.648Z,21.91
2022-08-17T01:28:54.652Z,21.07
2022-08-17T01:31:25.238Z,20.80
2022-08-17T01:33:52.313Z,23.04
2022-08-17T01:36:19.824Z,21.39
2022-08-17T01:38:46.683Z,22.48
2022-08-17T01:41:16.476Z,23.03
2022-08-17T01:43:52.150Z,24.00
2022-08-17T01:46:23.719Z,23.52
2022-08-17T01:48:51.704Z,24.28
2022-08-17T01:51:20.038Z,24.49
2022-08-17T01:53:54.356Z,24.51
2022-08-17T01:56:24.421Z,24.45
2022-08-17T01:58:52.551Z,24.08
2022-08-17T02:01:22.089Z,23.96
2022-08-17T02:03:53.518Z,22.96
2022-08-17T02:06:28.411Z,24.51
2022-08-17T02:09:02.954Z,23.32
2022-08-17T02:11:32.344Z,23.64
2022-08-17T02:14:03.214Z,21.21
2022-08-17T02:16:37.668Z,24.24
2022-08-17T02:19:07.573Z,24.18
2022-08-17T02:21:35.236Z,22.81
2022-08-17T02:24:03.322Z,23.85
2022-08-17T02:26:30.164Z,22.94
2022-08-17T02:28:57.040Z,23.22
2022-08-17T02:31:23.838Z,23.93
2022-08-17T02:34:00.481Z,23.05
2022-08-17T02:36:32.028Z,22.93
2022-08-17T02:39:02.121Z,24.31
2022-08-17T02:41:29.023Z,24.34
2022-08-17T02:43:55.878Z,24.54
2022-08-17T02:46:22.749Z,24.15
2022-08-17T02:48:49.663Z,21.61
2022-08-17T02:51:16.605Z,23.27
2022-08-17T02:53:43.463Z,22.77
2022-08-17T02:56:10.423Z,21.80
2022-08-17T02:58:37.457Z,21.22
2022-08-17T03:01:06.623Z,21.99
2022-08-17T03:03:34.487Z,23.05
2022-08-17T03:06:01.888Z,22.70
2022-08-17T03:08:29.302Z,23.21
2022-08-17T03:10:56.534Z,22.53
2022-08-17T03:13:23.577Z,23.57
2022-08-17T03:15:50.721Z,23.40
2022-08-17T03:18:24.896Z,23.02
2022-08-17T03:20:59.179Z,23.48
2022-08-17T03:23:27.799Z,23.31
2022-08-17T03:25:57.457Z,22.94
2022-08-17T03:28:25.674Z,22.51
2022-08-17T03:30:52.905Z,23.20
2022-08-17T03:33:20.207Z,23.76
2022-08-17T03:35:47.537Z,21.66
2022-08-17T03:38:15.828Z,23.48
2022-08-17T03:40:57.104Z,21.17
2022-08-17T03:43:28.441Z,23.00
2022-08-17T03:46:33.842Z,21.79
2022-08-17T03:49:19.507Z,23.03
2022-08-17T03:52:04.911Z,21.79
2022-08-17T03:54:50.322Z,22.03
2022-08-17T03:57:17.135Z,23.33
2022-08-17T03:59:45.183Z,22.47
2022-08-17T04:02:19.168Z,23.75
2022-08-17T04:04:46.944Z,24.02
2022-08-17T04:07:13.870Z,21.97
2022-08-17T04:09:40.767Z,23.43
2022-08-17T04:12:08.000Z,24.23
2022-08-17T04:14:52.243Z,24.16
2022-08-17T04:17:22.981Z,22.88
2022-08-17T04:19:49.763Z,22.66
2022-08-17T04:22:30.869Z,24.00
2022-08-17T04:25:03.310Z,23.03
2022-08-17T04:27:30.076Z,24.13
2022-08-17T04:29:56.945Z,23.40
2022-08-17T04:32:59.370Z,23.23
2022-08-17T04:35:10.679Z,23.96
2022-08-17T04:37:37.489Z,23.78
2022-08-17T04:40:27.201Z,24.01
2022-08-17T04:43:13.376Z,23.94
2022-08-17T04:45:55.923Z,23.99
2022-08-17T04:48:36.477Z,24.02
2022-08-17T04:51:12.365Z,23.56
2022-08-17T04:53:41.679Z,23.29
2022-08-17T04:56:11.632Z,23.85
2022-08-17T04:58:49.881Z,21.61
2022-08-17T05:01:23.295Z,23.73
2022-08-17T05:03:52.346Z,23.46
2022-08-17T05:06:19.655Z,22.96
2022-08-17T05:08:46.505Z,23.47
2022-08-17T05:11:13.282Z,24.23
2022-08-17T05:13:40.210Z,23.53
2022-08-17T05:16:09.107Z,22.60
2022-08-17T05:18:38.784Z,21.12
2022-08-17T05:21:06.937Z,21.85
2022-08-17T05:23:42.874Z,23.13
2022-08-17T05:26:25.805Z,22.75
2022-08-17T05:28:54.627Z,25.00
2022-08-17T05:31:24.617Z,26.00
2022-08-17T05:33:52.053Z,25.16
2022-08-17T05:36:43.542Z,25.45
2022-08-17T05:39:06.664Z,24.72
2022-08-17T05:41:33.641Z,23.83
2022-08-17T05:44:00.427Z,23.66
2022-08-17T05:46:39.548Z,23.43
2022-08-17T05:49:08.121Z,25.25
2022-08-17T05:51:50.056Z,25.15
2022-08-17T05:54:59.839Z,24.90
2022-08-17T05:57:54.245Z,24.24
2022-08-17T06:00:31.885Z,24.05
2022-08-17T06:03:27.350Z,25.03
2022-08-17T06:06:25.281Z,24.87
2022-08-17T06:09:35.282Z,26.88
2022-08-17T06:12:19.753Z,26.90
2022-08-17T06:14:55.885Z,28.57
2022-08-17T06:17:25.201Z,26.10
2022-08-17T06:19:59.787Z,28.12
2022-08-17T06:22:33.375Z,25.72
2022-08-17T06:25:05.114Z,27.36
2022-08-17T06:27:49.010Z,28.75
2022-08-17T06:30:57.477Z,30.60
2022-08-17T06:33:26.734Z,30.29
2022-08-17T06:36:09.846Z,29.76
2022-08-17T06:38:53.310Z,29.75
2022-08-17T06:41:29.015Z,29.32
2022-08-17T06:44:43.693Z,27.52
2022-08-17T06:47:28.578Z,27.07
2022-08-17T06:50:30.961Z,28.39
2022-08-17T06:53:04.438Z,28.71
2022-08-17T06:56:11.061Z,27.27
2022-08-17T06:58:41.696Z,30.09
2022-08-17T07:01:25.247Z,32.84
2022-08-17T07:03:59.695Z,33.03
2022-08-17T07:06:47.518Z,34.33
2022-08-17T07:09:23.451Z,32.23
2022-08-17T07:11:54.761Z,30.88
2022-08-17T07:14:36.743Z,28.32
2022-08-17T07:17:15.727Z,32.00
2022-08-17T07:19:45.725Z,31.37
2022-08-17T07:22:53.533Z,30.22
2022-08-17T07:25:26.503Z,33.54
2022-08-17T07:28:00.432Z,32.36
2022-08-17T07:30:31.651Z,32.98
2022-08-17T07:33:12.686Z,32.74
2022-08-17T07:35:44.346Z,33.24
2022-08-17T07:38:25.788Z,32.92
2022-08-17T07:41:02.785Z,33.03
2022-08-17T07:43:38.102Z,32.09
2022-08-17T07:46:37.339Z,33.71
2022-08-17T07:49:05.065Z,33.98
2022-08-17T07:51:36.409Z,33.42
2022-08-17T07:54:22.345Z,31.34
2022-08-17T07:56:50.923Z,33.23
2022-08-17T07:59:40.737Z,31.78
2022-08-17T08:02:38.893Z,33.38
2022-08-17T08:05:50.097Z,31.22
2022-08-17T08:08:24.355Z,34.75
2022-08-17T08:11:29.768Z,34.66
2022-08-17T08:14:20.671Z,34.69
2022-08-17T08:17:07.362Z,31.17
2022-08-17T08:19:36.404Z,33.43
2022-08-17T08:22:12.054Z,34.45
2022-08-17T08:24:51.447Z,32.77
2022-08-17T08:27:49.485Z,31.98
2022-08-17T08:30:21.311Z,32.41
2022-08-17T08:32:51.345Z,34.93
2022-08-17T08:35:32.434Z,35.40
2022-08-17T08:38:13.797Z,32.69
2022-08-17T08:41:01.872Z,35.71
2022-08-17T08:43:52.854Z,34.72
2022-08-17T08:46:48.300Z,33.43
2022-08-17T08:49:29.819Z,35.35
2022-08-17T08:52:25.834Z,34.80
2022-08-17T08:55:15.631Z,35.34
2022-08-17T08:57:56.985Z,37.24
2022-08-17T09:00:26.021Z,35.69
2022-08-17T09:02:58.686Z,38.05
2022-08-17T09:05:49.699Z,35.05
2022-08-17T09:08:44.084Z,30.95
2022-08-17T09:11:24.614Z,35.23
2022-08-17T09:14:00.781Z,34.34
2022-08-17T09:16:36.875Z,36.69
2022-08-17T09:19:16.082Z,35.72
2022-08-17T09:21:52.632Z,35.82
2022-08-17T09:24:31.350Z,35.70
2022-08-17T09:27:03.587Z,36.35
2022-08-17T09:29:35.292Z,34.93
2022-08-17T09:32:14.653Z,38.09
2022-08-17T09:34:51.008Z,38.23
2022-08-17T09:37:43.801Z,37.28
2022-08-17T09:40:33.731Z,35.18
2022-08-17T09:43:08.698Z,35.59
2022-08-17T09:45:39.762Z,35.12
2022-08-17T09:48:14.910Z,34.33
2022-08-17T09:51:05.666Z,37.04
2022-08-17T09:53:36.366Z,36.64
2022-08-17T09:56:10.002Z,35.02
2022-08-17T09:59:05.081Z,37.46
2022-08-17T10:01:51.630Z,38.46
2022-08-17T10:04:47.824Z,38.53
2022-08-17T10:07:31.747Z,37.81
2022-08-17T10:10:32.508Z,37.78
2022-08-17T10:13:35.849Z,35.39
2022-08-17T10:16:23.155Z,37.33
2022-08-17T10:19:08.859Z,38.58
2022-08-17T10:22:01.385Z,37.73
2022-08-17T10:25:22.183Z,38.07
2022-08-17T10:28:01.962Z,40.48
2022-08-17T10:30:33.384Z,35.74
2022-08-17T10:33:04.803Z,37.55
2022-08-17T10:35:34.039Z,37.17
2022-08-17T10:38:16.195Z,38.51
2022-08-17T10:40:59.320Z,39.23
2022-08-17T10:44:37.906Z,40.99
2022-08-17T10:47:03.241Z,36.90
2022-08-17T10:49:34.065Z,37.71
2022-08-17T10:52:22.877Z,39.65
2022-08-17T10:54:58.006Z,36.50
2022-08-17T10:57:34.646Z,35.61
2022-08-17T11:00:18.021Z,37.71
2022-08-17T11:02:55.456Z,35.54
2022-08-17T11:05:45.550Z,36.15
2022-08-17T11:08:38.859Z,37.11
2022-08-17T11:11:26.516Z,38.11
2022-08-17T11:14:15.003Z,37.64
2022-08-17T11:17:06.582Z,40.05
2022-08-17T11:19:59.259Z,39.13
2022-08-17T11:22:31.321Z,38.89
2022-08-17T11:25:20.150Z,38.51
2022-08-17T11:27:53.765Z,35.77
2022-08-17T11:30:48.935Z,39.59
2022-08-17T11:33:58.876Z,40.60
2022-08-17T11:36:37.696Z,34.60
2022-08-17T11:39:16.775Z,39.34
2022-08-17T11:41:55.754Z,41.36
2022-08-17T11:44:25.647Z,37.24
2022-08-17T11:48:09.417Z,38.68
2022-08-17T11:51:23.562Z,38.34
2022-08-17T11:53:50.263Z,41.37
2022-08-17T11:56:41.923Z,38.70
2022-08-17T11:59:30.764Z,40.06
2022-08-17T12:01:57.758Z,40.32
2022-08-17T12:04:31.900Z,38.48
2022-08-17T12:07:13.261Z,40.26
2022-08-17T12:09:45.706Z,37.97
2022-08-17T12:12:20.354Z,40.19
2022-08-17T12:15:11.412Z,37.22
2022-08-17T12:17:40.767Z,39.12
2022-08-17T12:20:23.527Z,39.51
2022-08-17T12:23:01.231Z,38.53
2022-08-17T12:25:42.560Z,37.36
2022-08-17T12:28:26.315Z,38.23
2022-08-17T12:30:53.721Z,37.88
2022-08-17T12:33:28.655Z,39.46
2022-08-17T12:36:03.312Z,39.45
2022-08-17T12:38:36.194Z,40.23
2022-08-17T12:41:24.206Z,39.56
2022-08-17T12:44:22.305Z,37.47
2022-08-17T12:47:02.145Z,37.68
2022-08-17T12:49:32.913Z,39.87
2022-08-17T12:52:12.477Z,37.77
2022-08-17T12:54:46.939Z,39.88
2022-08-17T12:57:24.264Z,42.41
2022-08-17T12:59:59.115Z,39.25
2022-08-17T13:02:39.753Z,38.77
2022-08-17T13:05:14.569Z,40.92
2022-08-17T13:07:42.779Z,41.98
2022-08-17T13:10:19.269Z,42.64
2022-08-17T13:12:46.240Z,42.41
2022-08-17T13:15:21.647Z,41.48
2022-08-17T13:18:04.745Z,38.28
2022-08-17T13:20:31.919Z,38.80
2022-08-17T13:23:01.354Z,41.63
2022-08-17T13:25:29.757Z,40.92
2022-08-17T13:27:56.812Z,39.30
2022-08-17T13:30:33.301Z,40.92
2022-08-17T13:33:20.729Z,41.92
2022-08-17T13:36:07.198Z,40.99
2022-08-17T13:38:49.760Z,40.01
2022-08-17T13:41:37.802Z,37.43
2022-08-17T13:44:31.074Z,38.04
2022-08-17T13:46:59.658Z,39.38
2022-08-17T13:49:33.894Z,40.53
2022-08-17T13:52:52.299Z,39.28
2022-08-17T13:55:22.704Z,37.71
2022-08-17T13:58:03.630Z,38.22
2022-08-17T14:00:36.441Z,39.77
2022-08-17T14:03:05.608Z,37.96
2022-08-17T14:05:33.884Z,39.33
2022-08-17T14:08:06.683Z,38.86
2022-08-17T14:10:36.465Z,39.93
2022-08-17T14:13:04.412Z,40.10
2022-08-17T14:15:56.041Z,40.63
2022-08-17T14:18:37.509Z,38.69
2022-08-17T14:21:08.470Z,38.61
2022-08-17T14:23:36.709Z,38.49
2022-08-17T14:26:04.671Z,38.53
2022-08-17T14:28:32.157Z,39.94
2022-08-17T14:31:00.785Z,35.88
2022-08-17T14:33:28.834Z,36.36
2022-08-17T14:35:55.950Z,37.11
2022-08-17T14:38:22.805Z,35.77
2022-08-17T14:40:49.945Z,36.53
2022-08-17T14:43:18.000Z,37.70
2022-08-17T14:45:44.893Z,37.04
2022-08-17T14:48:12.094Z,36.81
2022-08-17T14:50:42.211Z,36.43
2022-08-17T14:53:11.575Z,36.25
2022-08-17T14:55:40.792Z,37.22
2022-08-17T14:58:08.819Z,37.99
2022-08-17T15:00:35.809Z,36.49
2022-08-17T15:03:03.424Z,34.27
2022-08-17T15:05:36.731Z,35.71
2022-08-17T15:08:05.631Z,36.39
2022-08-17T15:10:33.269Z,37.89
2022-08-17T15:13:00.565Z,36.95
2022-08-17T15:15:28.564Z,37.29
2022-08-17T15:17:55.835Z,37.70
2022-08-17T15:20:28.130Z,38.01
2022-08-17T15:22:57.592Z,37.09
2022-08-17T15:25:30.294Z,37.61
2022-08-17T15:27:57.445Z,38.49
2022-08-17T15:30:26.046Z,37.83
2022-08-17T15:32:55.175Z,37.85
2022-08-17T15:35:27.737Z,37.92
2022-08-17T15:38:11.680Z,37.74
2022-08-17T15:40:42.762Z,38.36
2022-08-17T15:43:27.278Z,38.49
2022-08-17T15:46:01.944Z,38.02
2022-08-17T15:48:41.479Z,37.16
2022-08-17T15:51:11.356Z,37.42
2022-08-17T15:53:40.135Z,37.32
2022-08-17T15:56:07.256Z,37.83
2022-08-17T15:58:35.567Z,38.87
2022-08-17T16:01:14.869Z,38.50
2022-08-17T16:04:03.924Z,38.43
2022-08-17T16:06:32.325Z,37.55
2022-08-17T16:09:00.455Z,37.47
2022-08-17T16:11:27.281Z,38.59
2022-08-17T16:13:55.100Z,38.35
2022-08-17T16:16:23.776Z,38.68
2022-08-17T16:18:54.748Z,38.03
2022-08-17T16:21:27.077Z,39.01
2022-08-17T16:24:00.801Z,37.77
2022-08-17T16:26:29.724Z,38.48
2022-08-17T16:28:59.112Z,38.36
2022-08-17T16:31:26.131Z,38.71
2022-08-17T16:34:03.768Z,37.68
2022-08-17T16:36:41.527Z,38.53
2022-08-17T16:39:20.813Z,37.64
2022-08-17T16:41:47.718Z,37.96
2022-08-17T16:44:19.117Z,35.83
2022-08-17T16:46:48.217Z,37.67
2022-08-17T16:49:34.453Z,37.83
2022-08-17T16:52:07.192Z,36.48
2022-08-17T16:54:35.453Z,34.97
2022-08-17T16:57:05.141Z,34.67
2022-08-17T16:59:41.840Z,34.81
2022-08-17T17:02:16.975Z,36.21
2022-08-17T17:04:53.356Z,36.14
2022-08-17T17:07:32.282Z,36.25
2022-08-17T17:09:59.969Z,34.99
2022-08-17T17:13:01.273Z,36.28
2022-08-17T17:15:21.975Z,37.11
2022-08-17T17:17:50.609Z,35.86
2022-08-17T17:20:29.013Z,35.32
2022-08-17T17:23:19.128Z,35.97
2022-08-17T17:26:32.283Z,35.19
2022-08-17T17:29:11.058Z,36.52
2022-08-17T17:31:55.025Z,36.67
2022-08-17T17:34:22.836Z,36.18
2022-08-17T17:36:54.163Z,34.30
2022-08-17T17:39:29.696Z,36.36
2022-08-17T17:41:59.621Z,36.71
2022-08-17T17:44:33.162Z,37.29
2022-08-17T17:47:03.384Z,35.69
2022-08-17T17:49:35.179Z,36.81
2022-08-17T17:52:26.123Z,36.15
2022-08-17T17:55:16.813Z,35.91
2022-08-17T17:57:58.910Z,36.38
2022-08-17T18:00:30.585Z,36.56
2022-08-17T18:03:31.170Z,37.04
2022-08-17T18:06:22.802Z,36.69
2022-08-17T18:09:10.369Z,35.95
2022-08-17T18:12:00.644Z,36.43
2022-08-17T18:15:01.699Z,36.06
2022-08-17T18:17:29.908Z,34.06
2022-08-17T18:19:57.434Z,34.82
2022-08-17T18:22:25.342Z,34.57
2022-08-17T18:24:58.111Z,33.63
2022-08-17T18:27:33.714Z,33.88
2022-08-17T18:30:21.867Z,32.93
2022-08-17T18:32:48.730Z,32.14
2022-08-17T18:35:18.554Z,33.22
2022-08-17T18:37:49.956Z,33.03
2022-08-17T18:40:17.084Z,34.10
2022-08-17T18:42:50.618Z,33.54
2022-08-17T18:45:38.944Z,34.14
2022-08-17T18:48:17.999Z,32.66
2022-08-17T18:50:45.282Z,32.76
2022-08-17T18:53:26.783Z,32.62
2022-08-17T18:56:16.946Z,31.56
2022-08-17T18:58:52.158Z,32.26
2022-08-17T19:01:21.733Z,31.60
2022-08-17T19:04:15.710Z,32.09
2022-08-17T19:06:42.981Z,31.96
2022-08-17T19:09:33.945Z,33.10
2022-08-17T19:12:08.422Z,31.81
2022-08-17T19:14:36.003Z,33.02
2022-08-17T19:17:16.543Z,32.83
2022-08-17T19:19:56.279Z,32.79
2022-08-17T19:23:02.269Z,32.10
2022-08-17T19:25:36.309Z,33.15
2022-08-17T19:28:12.683Z,33.58
2022-08-17T19:30:54.740Z,33.26
2022-08-17T19:33:22.039Z,33.79
2022-08-17T19:36:01.215Z,32.80
2022-08-17T19:38:46.780Z,32.64
2022-08-17T19:41:28.244Z,32.38
2022-08-17T19:43:57.932Z,32.57
2022-08-17T19:46:48.715Z,32.22
2022-08-17T19:49:33.537Z,33.09
2022-08-17T19:52:24.376Z,32.17
2022-08-17T19:54:57.092Z,32.50
2022-08-17T19:57:43.988Z,31.87
2022-08-17T20:00:15.536Z,30.74
2022-08-17T20:03:16.672Z,31.44
2022-08-17T20:06:11.951Z,32.12
2022-08-17T20:08:49.013Z,32.11
2022-08-17T20:11:21.184Z,32.39
2022-08-17T20:13:56.224Z,31.69
2022-08-17T20:16:24.675Z,32.54
2022-08-17T20:19:19.334Z,33.06
2022-08-17T20:21:48.738Z,32.68
2022-08-17T20:24:22.910Z,32.86
2022-08-17T20:26:58.703Z,32.93
2022-08-17T20:29:55.175Z,32.99
2022-08-17T20:32:26.900Z,33.73
2022-08-17T20:35:09.074Z,32.28
2022-08-17T20:37:43.222Z,32.67
2022-08-17T20:40:10.050Z,31.84
2022-08-17T20:42:37.257Z,31.96
2022-08-17T20:45:23.374Z,29.67
2022-08-17T20:48:27.232Z,31.29
2022-08-17T20:50:52.731Z,29.99
2022-08-17T20:53:47.585Z,29.92
2022-08-17T20:56:43.494Z,30.44
2022-08-17T20:59:25.593Z,30.78
2022-08-17T21:02:17.548Z,31.48
2022-08-17T21:04:46.428Z,30.63
2022-08-17T21:07:43.010Z,32.65
2022-08-17T21:10:13.979Z,30.37
2022-08-17T21:12:44.447Z,31.45
2022-08-17T21:15:48.628Z,31.09
2022-08-17T21:18:38.813Z,30.53
2022-08-17T21:21:08.242Z,31.65
2022-08-17T21:24:14.777Z,32.37
2022-08-17T21:27:06.567Z,31.33
2022-08-17T21:29:39.683Z,31.61
2022-08-17T21:32:09.030Z,32.55
2022-08-17T21:34:43.256Z,32.06
2022-08-17T21:37:18.893Z,31.74
2022-08-17T21:39:51.963Z,32.30
2022-08-17T21:42:25.715Z,32.38
2022-08-17T21:44:58.048Z,32.10
2022-08-17T21:47:28.233Z,31.59
2022-08-17T21:50:13.219Z,33.11
2022-08-17T21:52:40.563Z,32.41
2022-08-17T21:55:17.867Z,32.60
2022-08-17T21:57:53.052Z,32.91
2022-08-17T22:00:33.073Z,32.58
2022-08-17T22:03:07.024Z,32.56
2022-08-17T22:05:39.931Z,32.39
2022-08-17T22:08:19.615Z,32.60
2022-08-17T22:10:49.132Z,32.67
2022-08-17T22:13:19.744Z,32.49
2022-08-17T22:15:49.782Z,31.60
2022-08-17T22:18:25.515Z,31.87
2022-08-17T22:20:56.469Z,31.36
2022-08-17T22:23:44.233Z,32.24
2022-08-17T22:26:14.083Z,30.63
2022-08-17T22:28:46.227Z,31.38
2022-08-17T22:31:24.785Z,32.62
2022-08-17T22:34:09.776Z,32.45
2022-08-17T22:36:38.835Z,29.94
2022-08-17T22:39:11.551Z,30.03
2022-08-17T22:41:50.573Z,28.46
2022-08-17T22:44:23.505Z,29.33
2022-08-17T22:46:58.748Z,29.84
2022-08-17T22:49:54.017Z,26.38
2022-08-17T22:52:56.068Z,26.96
2022-08-17T22:55:42.424Z,25.94
2022-08-17T22:58:37.252Z,26.20
2022-08-17T23:01:25.614Z,27.25
2022-08-17T23:03:56.882Z,26.43
2022-08-17T23:06:24.415Z,26.56
2022-08-17T23:08:56.827Z,26.43
2022-08-17T23:11:47.814Z,26.99
2022-08-17T23:14:15.735Z,26.73
2022-08-17T23:16:42.739Z,26.09
2022-08-17T23:19:12.369Z,26.52
2022-08-17T23:21:39.737Z,26.90
2022-08-17T23:24:08.933Z,25.79
2022-08-17T23:26:43.764Z,27.78
2022-08-17T23:29:11.146Z,25.92
2022-08-17T23:31:40.954Z,26.71
2022-08-17T23:34:11.793Z,26.50
2022-08-17T23:36:38.944Z,27.73
2022-08-17T23:39:07.063Z,27.11
2022-08-17T23:41:39.956Z,27.29
2022-08-17T23:44:07.721Z,27.55
2022-08-17T23:46:35.019Z,24.80
2022-08-17T23:49:02.007Z,26.32
2022-08-17T23:51:34.656Z,25.85
2022-08-17T23:54:11.713Z,25.79
2022-08-17T23:56:56.511Z,27.20
2022-08-17T23:59:23.757Z,27.30
